Pilot Information

METAR/TAF »

TAF 22.01.2018

TAF EGTC 221401Z 2215/2219 26007KT 9999 SCT040

METAR 22.01.2018

EGTC 221720Z 26008KT 240V300 9999 BKN035 08/04 Q1015

Pilot Information

 

 

Please be advised that Cranfield Airport will be closed on :

4th and 5th July 2016

15 - 18th September 2016 inclusive (Festival of Flight)

We sincerely apologise for any inconvenience caused.

Cranfield Airport  has approval to operate 24 hours a day 365 days a year and has no slot restrictions in place. 

Therefore, with prior arrangement business jet aircraft can land and take off at Cranfield Airport at any time - day or night.

With an 1800m runway, supported by ILS and GNSS approaches, Cranfield Airport can accommodate all business jets up to Global Express, G550 and BBJ types.

Avgas and Jet A1 fuel is always readily available and, if you need a speedy turnaround, we can ensure that your fuel bowser is on standby and awaiting your arrival on our dedicated handling apron. 

MMIKE 940X350

 

For flights originating from outside the UK, Cranfield Airport benefits from remote customs and immigration arrangements.  Documentation is completed and submitted to UK Border Force before the flight with the result that passengers are cleared to proceed to their onward destination within minutes of arrival.